Jordans Store, Texas
Current Conditions -  °F | °C
As of 9:15 AM on Wednesday 22 Oct 2014 (Local Time) from KOCH Reporting Station
Clear Clear  
Wind Chill: 64°   Ceiling: Unl
Heat Index: 64°   Visibility: 10mi
Dew Point: 61°   Wind: 5mph
Humidity: 88%   Direction: 60°ENE
Pressure: 30.15"   Gusts: NA
Location:  31.7022°N, 93.9592°W
Report Text: KOCH 221415Z AUTO 06004KT 10SM CLR 18/16 A3015 RMK AO1
Loading
Personal Weather Stations






























Interactive Weather Map
Tropical Storm Tracking
New forecast layout! Learn more

10-Day Weather Forecast

Advertisements
Track Severe Weather on mobile